createdAt,value
2022-11-14T00:02:35.548Z,11.95
2022-11-14T00:05:22.405Z,13.50
2022-11-14T00:08:15.978Z,14.10
2022-11-14T00:11:02.576Z,15.38
2022-11-14T00:13:49.105Z,13.65
2022-11-14T00:16:38.695Z,11.98
2022-11-14T00:19:25.001Z,12.98
2022-11-14T00:22:11.833Z,11.25
2022-11-14T00:24:59.623Z,12.18
2022-11-14T00:27:46.319Z,10.98
2022-11-14T00:30:32.983Z,11.65
2022-11-14T00:33:21.135Z,11.35
2022-11-14T00:36:07.665Z,11.77
2022-11-14T00:38:55.193Z,12.40
2022-11-14T00:41:43.149Z,12.80
2022-11-14T00:44:29.678Z,11.68
2022-11-14T00:47:16.438Z,11.75
2022-11-14T00:50:03.207Z,10.95
2022-11-14T00:52:49.823Z,11.20
2022-11-14T00:55:36.606Z,10.55
2022-11-14T00:58:24.623Z,11.13
2022-11-14T01:01:11.547Z,11.63
2022-11-14T01:03:59.626Z,10.85
2022-11-14T01:06:46.057Z,12.30
2022-11-14T01:09:32.745Z,11.65
2022-11-14T01:12:19.434Z,11.25
2022-11-14T01:15:08.531Z,11.23
2022-11-14T01:17:55.021Z,12.40
2022-11-14T01:20:46.776Z,12.00
2022-11-14T01:23:33.476Z,11.57
2022-11-14T01:26:19.893Z,11.35
2022-11-14T01:29:06.680Z,11.05
2022-11-14T01:31:54.694Z,11.65
2022-11-14T01:34:41.286Z,10.82
2022-11-14T01:37:27.771Z,10.38
2022-11-14T01:40:14.380Z,11.75
2022-11-14T01:43:30.119Z,11.27
2022-11-14T01:46:20.459Z,11.02
2022-11-14T01:49:16.511Z,10.00
2022-11-14T01:52:06.232Z,9.88
2022-11-14T01:54:55.507Z,10.73
2022-11-14T01:57:47.165Z,10.30
2022-11-14T02:00:34.097Z,9.70
2022-11-14T02:03:22.250Z,10.60
2022-11-14T02:06:13.674Z,11.27
2022-11-14T02:09:02.621Z,11.93
2022-11-14T02:11:49.834Z,11.95
2022-11-14T02:14:38.548Z,10.38
2022-11-14T02:17:30.834Z,10.68
2022-11-14T02:20:22.305Z,10.07
2022-11-14T02:23:08.997Z,9.98
2022-11-14T02:25:55.889Z,10.27
2022-11-14T02:28:42.446Z,9.75
2022-11-14T02:31:29.098Z,9.15
2022-11-14T02:34:19.759Z,9.48
2022-11-14T02:37:07.690Z,9.13
2022-11-14T02:39:54.263Z,8.70
2022-11-14T02:42:40.939Z,8.27
2022-11-14T02:45:28.051Z,8.65
2022-11-14T02:48:14.501Z,8.05
2022-11-14T02:51:01.035Z,7.85
2022-11-14T02:53:49.134Z,6.57
2022-11-14T02:56:35.933Z,7.45
2022-11-14T02:59:22.350Z,7.70
2022-11-14T03:02:09.154Z,7.78
2022-11-14T03:04:56.018Z,7.78
2022-11-14T03:07:42.639Z,7.57
2022-11-14T03:10:30.770Z,7.63
2022-11-14T03:13:17.163Z,7.85
2022-11-14T03:16:07.321Z,8.20
2022-11-14T03:18:54.067Z,7.30
2022-11-14T03:21:40.387Z,7.65
2022-11-14T03:24:27.118Z,7.13
2022-11-14T03:27:15.067Z,7.85
2022-11-14T03:30:01.778Z,7.65
2022-11-14T03:32:50.649Z,6.07
2022-11-14T03:35:37.282Z,7.20
2022-11-14T03:38:24.139Z,8.15
2022-11-14T03:41:10.527Z,7.68
2022-11-14T03:43:58.736Z,7.88
2022-11-14T03:46:45.433Z,7.65
2022-11-14T03:49:32.087Z,8.13
2022-11-14T03:52:18.877Z,7.72
2022-11-14T03:55:05.581Z,6.50
2022-11-14T03:57:52.456Z,7.05
2022-11-14T04:00:40.342Z,8.05
2022-11-14T04:03:27.105Z,7.22
2022-11-14T04:06:13.625Z,7.65
2022-11-14T04:09:01.200Z,6.75
2022-11-14T04:11:47.853Z,7.20
2022-11-14T04:14:34.470Z,5.75
2022-11-14T04:17:22.452Z,5.85
2022-11-14T04:20:10.180Z,6.38
2022-11-14T04:22:56.517Z,5.13
2022-11-14T04:25:44.350Z,5.85
2022-11-14T04:28:31.425Z,5.15
2022-11-14T04:31:18.241Z,5.72
2022-11-14T04:34:06.233Z,5.55
2022-11-14T04:36:53.190Z,4.78
2022-11-14T04:39:39.887Z,5.50
2022-11-14T04:42:26.592Z,4.97
2022-11-14T04:45:13.314Z,4.95
2022-11-14T04:47:59.843Z,4.68
2022-11-14T04:50:47.916Z,4.10
2022-11-14T04:53:34.407Z,5.25
2022-11-14T04:56:23.141Z,5.20
2022-11-14T04:59:09.698Z,5.05
2022-11-14T05:01:56.497Z,4.72
2022-11-14T05:04:44.382Z,4.97
2022-11-14T05:07:32.346Z,5.15
2022-11-14T05:10:19.275Z,5.85
2022-11-14T05:13:05.790Z,4.57
2022-11-14T05:15:52.332Z,5.03
2022-11-14T05:18:44.273Z,5.25
2022-11-14T05:21:33.173Z,5.40
2022-11-14T05:24:21.540Z,5.75
2022-11-14T05:27:08.251Z,5.65
2022-11-14T05:29:55.319Z,5.57
2022-11-14T05:32:41.961Z,5.40
2022-11-14T05:35:28.581Z,6.20
2022-11-14T05:38:14.997Z,6.55
2022-11-14T05:41:07.015Z,6.10
2022-11-14T05:43:53.399Z,5.68
2022-11-14T05:46:40.208Z,5.35
2022-11-14T05:49:26.723Z,5.90
2022-11-14T05:52:13.498Z,5.30
2022-11-14T05:55:00.056Z,5.80
2022-11-14T05:57:48.047Z,5.55
2022-11-14T06:00:39.638Z,5.05
2022-11-14T06:03:32.445Z,5.20
2022-11-14T06:06:21.045Z,5.35
2022-11-14T06:09:07.751Z,5.38
2022-11-14T06:11:54.637Z,5.05
2022-11-14T06:14:42.592Z,5.22
2022-11-14T06:17:29.007Z,5.03
2022-11-14T06:20:16.096Z,5.35
2022-11-14T06:23:02.676Z,5.35
2022-11-14T06:25:49.206Z,4.43
2022-11-14T06:28:38.990Z,4.80
2022-11-14T06:31:27.676Z,4.22
2022-11-14T06:34:14.130Z,4.35
2022-11-14T06:37:00.693Z,4.20
2022-11-14T06:39:50.218Z,3.83
2022-11-14T06:42:36.662Z,4.07
2022-11-14T06:45:22.969Z,4.05
2022-11-14T06:48:11.116Z,4.05
2022-11-14T06:50:59.589Z,4.47
2022-11-14T06:53:46.875Z,3.80
2022-11-14T06:56:33.722Z,4.03
2022-11-14T06:59:22.432Z,4.53
2022-11-14T07:02:17.789Z,4.63
2022-11-14T07:05:10.005Z,3.60
2022-11-14T07:07:59.385Z,4.95
2022-11-14T07:10:45.802Z,4.35
2022-11-14T07:13:33.694Z,4.00
2022-11-14T07:16:20.821Z,3.58
2022-11-14T07:19:09.217Z,3.97
2022-11-14T07:21:56.978Z,4.28
2022-11-14T07:24:45.633Z,4.05
2022-11-14T07:27:32.463Z,3.83
2022-11-14T07:30:19.370Z,4.20
2022-11-14T07:33:05.685Z,3.67
2022-11-14T07:35:52.579Z,3.92
2022-11-14T07:38:40.986Z,5.05
2022-11-14T07:41:27.667Z,4.07
2022-11-14T07:44:15.787Z,4.95
2022-11-14T07:47:02.736Z,4.57
2022-11-14T07:49:49.499Z,5.07
2022-11-14T07:52:36.285Z,4.95
2022-11-14T07:55:25.216Z,5.32
2022-11-14T07:58:11.834Z,4.47
2022-11-14T08:01:01.841Z,4.50
2022-11-14T08:03:48.396Z,4.93
2022-11-14T08:06:36.023Z,4.45
2022-11-14T08:09:23.269Z,4.82
2022-11-14T08:12:11.263Z,4.65
2022-11-14T08:14:57.804Z,4.10
2022-11-14T08:17:44.660Z,3.63
2022-11-14T08:20:31.366Z,4.82
2022-11-14T08:23:18.108Z,4.30
2022-11-14T08:26:04.572Z,3.90
2022-11-14T08:28:55.442Z,4.20
2022-11-14T08:31:41.996Z,3.90
2022-11-14T08:34:29.187Z,4.40
2022-11-14T08:37:16.026Z,4.88
2022-11-14T08:40:02.561Z,5.25
2022-11-14T08:42:49.200Z,4.65
2022-11-14T08:45:37.417Z,4.40
2022-11-14T08:48:24.230Z,4.55
2022-11-14T08:51:10.840Z,4.18
2022-11-14T08:53:57.523Z,3.75
2022-11-14T08:56:44.350Z,4.30
2022-11-14T08:59:30.881Z,4.35
2022-11-14T09:02:19.181Z,4.00
2022-11-14T09:05:06.400Z,4.05
2022-11-14T09:07:52.812Z,3.92
2022-11-14T09:10:39.489Z,4.13
2022-11-14T09:13:27.486Z,4.22
2022-11-14T09:16:14.173Z,4.47
2022-11-14T09:19:02.939Z,4.25
2022-11-14T09:21:49.586Z,4.20
2022-11-14T09:24:36.710Z,4.30
2022-11-14T09:27:23.296Z,3.75
2022-11-14T09:30:11.599Z,3.95
2022-11-14T09:33:00.900Z,4.15
2022-11-14T09:35:48.630Z,3.83
2022-11-14T09:38:38.799Z,3.92
2022-11-14T09:41:26.831Z,4.20
2022-11-14T09:44:32.747Z,4.50
2022-11-14T09:47:23.505Z,4.70
2022-11-14T09:50:15.742Z,5.18
2022-11-14T09:53:09.014Z,5.95
2022-11-14T09:55:55.635Z,5.28
2022-11-14T09:58:42.911Z,4.72
2022-11-14T10:01:39.088Z,4.65
2022-11-14T10:04:45.019Z,5.13
2022-11-14T10:07:44.230Z,4.50
2022-11-14T10:10:46.201Z,5.10
2022-11-14T10:13:59.545Z,4.68
2022-11-14T10:16:56.397Z,5.63
2022-11-14T10:19:47.943Z,5.97
2022-11-14T10:22:49.679Z,5.75
2022-11-14T10:25:49.866Z,4.97
2022-11-14T10:28:59.851Z,4.60
2022-11-14T10:31:54.397Z,5.22
2022-11-14T10:34:47.446Z,4.47
2022-11-14T10:37:42.786Z,5.15
2022-11-14T10:40:36.545Z,4.95
2022-11-14T10:43:31.015Z,6.43
2022-11-14T10:46:21.818Z,5.65
2022-11-14T10:49:17.865Z,5.20
2022-11-14T10:52:07.868Z,4.80
2022-11-14T10:55:00.457Z,4.82
2022-11-14T10:57:47.271Z,5.43
2022-11-14T11:00:35.430Z,4.78
2022-11-14T11:03:40.740Z,5.05
2022-11-14T11:06:28.788Z,5.13
2022-11-14T11:09:36.541Z,4.25
2022-11-14T11:12:39.888Z,5.07
2022-11-14T11:15:31.553Z,5.63
2022-11-14T11:18:29.218Z,4.82
2022-11-14T11:21:17.814Z,5.25
2022-11-14T11:24:04.554Z,3.65
2022-11-14T11:27:15.219Z,4.55
2022-11-14T11:30:20.566Z,9.40
2022-11-14T11:33:18.290Z,5.25
2022-11-14T11:36:13.010Z,5.65
2022-11-14T11:39:01.032Z,4.25
2022-11-14T11:42:09.234Z,4.95
2022-11-14T11:45:00.297Z,5.80
2022-11-14T11:47:53.965Z,5.32
2022-11-14T11:50:42.226Z,5.57
2022-11-14T11:53:35.169Z,5.60
2022-11-14T11:56:26.642Z,6.38
2022-11-14T11:59:27.896Z,5.70
2022-11-14T12:02:23.042Z,4.82
2022-11-14T12:05:14.621Z,6.40
2022-11-14T12:08:04.712Z,5.68
2022-11-14T12:10:56.812Z,5.22
2022-11-14T12:14:22.553Z,5.13
2022-11-14T12:17:28.079Z,5.47
2022-11-14T12:20:42.575Z,5.30
2022-11-14T12:24:08.136Z,5.47
2022-11-14T12:27:13.826Z,5.68
2022-11-14T12:30:17.794Z,4.82
2022-11-14T12:33:09.561Z,5.38
2022-11-14T12:35:59.479Z,6.97
2022-11-14T12:38:49.159Z,5.65
2022-11-14T12:41:38.420Z,5.63
2022-11-14T12:44:36.478Z,7.10
2022-11-14T12:47:25.873Z,7.03
2022-11-14T12:50:40.446Z,6.30
2022-11-14T12:53:42.092Z,6.20
2022-11-14T12:56:54.124Z,6.82
2022-11-14T12:59:50.833Z,6.25
2022-11-14T13:03:09.813Z,6.88
2022-11-14T13:06:00.530Z,6.78
2022-11-14T13:09:07.284Z,7.57
2022-11-14T13:12:11.394Z,6.72
2022-11-14T13:15:49.268Z,7.35
2022-11-14T13:18:54.321Z,6.38
2022-11-14T13:22:33.817Z,7.45
2022-11-14T13:25:25.259Z,7.68
2022-11-14T13:28:46.543Z,8.40
2022-11-14T13:31:49.520Z,7.90
2022-11-14T13:34:44.351Z,8.18
2022-11-14T13:37:55.778Z,8.82
2022-11-14T13:40:51.935Z,8.27
2022-11-14T13:43:54.479Z,8.60
2022-11-14T13:47:07.073Z,8.43
2022-11-14T13:50:01.545Z,7.15
2022-11-14T13:52:49.862Z,7.57
2022-11-14T13:55:55.261Z,7.53
2022-11-14T13:59:22.722Z,7.45
2022-11-14T14:02:39.061Z,7.13
2022-11-14T14:05:33.198Z,7.80
2022-11-14T14:08:40.523Z,7.78
2022-11-14T14:11:54.831Z,8.45
2022-11-14T14:15:09.505Z,8.10
2022-11-14T14:18:05.051Z,9.68
2022-11-14T14:20:58.403Z,9.13
2022-11-14T14:23:50.720Z,9.25
2022-11-14T14:26:55.414Z,9.55
2022-11-14T14:29:53.728Z,8.68
2022-11-14T14:32:40.757Z,8.90
2022-11-14T14:35:30.073Z,8.48
2022-11-14T14:38:25.478Z,9.50
2022-11-14T14:41:14.159Z,9.65
2022-11-14T14:44:01.104Z,8.32
2022-11-14T14:46:49.118Z,9.88
2022-11-14T14:49:38.685Z,8.90
2022-11-14T14:52:30.163Z,9.45
2022-11-14T14:55:24.371Z,11.80
2022-11-14T14:58:22.087Z,9.25
2022-11-14T15:01:13.846Z,10.98
2022-11-14T15:04:05.752Z,12.05
2022-11-14T15:06:53.034Z,10.65
2022-11-14T15:09:39.787Z,12.20
2022-11-14T15:12:28.423Z,13.45
2022-11-14T15:15:17.479Z,12.65
2022-11-14T15:18:09.650Z,11.77
2022-11-14T15:21:11.671Z,12.18
2022-11-14T15:24:02.935Z,14.32
2022-11-14T15:26:51.655Z,13.07
2022-11-14T15:29:46.667Z,13.82
2022-11-14T15:32:33.646Z,14.07
2022-11-14T15:35:29.195Z,13.30
2022-11-14T15:41:31.882Z,12.75
2022-11-14T15:44:31.776Z,12.93
2022-11-14T15:47:23.678Z,10.70
2022-11-14T15:50:26.241Z,11.10
2022-11-14T15:53:23.139Z,10.55
2022-11-14T15:56:13.175Z,9.20
2022-11-14T15:58:59.828Z,11.45
2022-11-14T16:01:48.390Z,11.35
2022-11-14T16:04:36.844Z,10.15
2022-11-14T16:07:23.512Z,11.13
2022-11-14T16:10:16.026Z,11.45
2022-11-14T16:13:03.979Z,9.80
2022-11-14T16:15:50.671Z,9.95
2022-11-14T16:18:37.469Z,9.90
2022-11-14T16:21:24.123Z,11.40
2022-11-14T16:24:17.060Z,10.55
2022-11-14T16:27:03.550Z,9.45
2022-11-14T16:29:51.619Z,9.20
2022-11-14T16:32:38.230Z,10.57
2022-11-14T16:35:26.673Z,10.23
2022-11-14T16:38:14.103Z,10.95
2022-11-14T16:41:01.138Z,10.52
2022-11-14T16:43:47.681Z,11.40
2022-11-14T16:46:35.801Z,10.45
2022-11-14T16:49:22.599Z,11.73
2022-11-14T16:52:11.330Z,12.77
2022-11-14T16:54:57.762Z,11.50
2022-11-14T16:57:44.492Z,11.23
2022-11-14T17:00:31.083Z,11.55
2022-11-14T17:03:19.217Z,12.13
2022-11-14T17:06:10.229Z,13.15
2022-11-14T17:08:57.856Z,12.68
2022-11-14T17:11:45.353Z,12.50
2022-11-14T17:14:33.478Z,13.27
2022-11-14T17:17:21.741Z,11.05
2022-11-14T17:20:11.245Z,12.02
2022-11-14T17:22:58.192Z,11.57
2022-11-14T17:25:44.545Z,11.60
2022-11-14T17:28:31.431Z,12.52
2022-11-14T17:31:18.610Z,13.07
2022-11-14T17:34:05.343Z,12.40
2022-11-14T17:36:53.150Z,12.70
2022-11-14T17:39:39.884Z,13.02
2022-11-14T17:42:26.725Z,11.02
2022-11-14T17:45:13.217Z,12.18
2022-11-14T17:47:59.992Z,13.15
2022-11-14T17:50:46.559Z,12.25
2022-11-14T17:53:35.124Z,12.82
2022-11-14T17:56:24.311Z,11.18
2022-11-14T17:59:10.844Z,9.63
2022-11-14T18:02:00.295Z,11.57
2022-11-14T18:04:47.964Z,12.45
2022-11-14T18:07:34.473Z,11.15
2022-11-14T18:10:22.382Z,13.30
2022-11-14T18:13:09.089Z,12.70
2022-11-14T18:15:55.509Z,12.82
2022-11-14T18:18:42.698Z,12.93
2022-11-14T18:21:29.757Z,12.07
2022-11-14T18:24:16.548Z,11.23
2022-11-14T18:27:04.458Z,11.93
2022-11-14T18:29:50.762Z,10.48
2022-11-14T18:32:37.478Z,11.40
2022-11-14T18:35:25.822Z,12.10
2022-11-14T18:38:12.754Z,12.13
2022-11-14T18:41:01.164Z,14.40
2022-11-14T18:43:49.537Z,13.82
2022-11-14T18:46:37.500Z,13.88
2022-11-14T18:49:25.118Z,12.57
2022-11-14T18:52:16.864Z,13.07
2022-11-14T18:55:04.697Z,13.43
2022-11-14T18:57:51.214Z,13.73
2022-11-14T19:00:39.133Z,12.95
2022-11-14T19:03:25.730Z,14.00
2022-11-14T19:06:13.939Z,13.38
2022-11-14T19:09:05.601Z,13.30
2022-11-14T19:12:24.061Z,12.80
2022-11-14T19:15:11.950Z,13.43
2022-11-14T19:17:59.826Z,12.75
2022-11-14T19:20:59.493Z,12.85
2022-11-14T19:23:45.970Z,14.68
2022-11-14T19:26:33.398Z,11.55
2022-11-14T19:29:20.209Z,12.20
2022-11-14T19:32:07.507Z,12.98
2022-11-14T19:34:55.271Z,13.40
2022-11-14T19:37:42.021Z,11.63
2022-11-14T19:40:29.882Z,14.18
2022-11-14T19:43:16.836Z,13.70
2022-11-14T19:46:04.257Z,13.93
2022-11-14T19:48:55.801Z,12.40
2022-11-14T19:51:44.214Z,12.20
2022-11-14T19:54:30.980Z,12.45
2022-11-14T19:57:17.692Z,14.02
2022-11-14T20:00:05.358Z,15.10
2022-11-14T20:02:52.160Z,14.88
2022-11-14T20:05:38.999Z,15.40
2022-11-14T20:08:27.033Z,15.35
2022-11-14T20:11:13.448Z,11.48
2022-11-14T20:14:02.128Z,12.40
2022-11-14T20:16:48.672Z,11.98
2022-11-14T20:19:35.441Z,11.48
2022-11-14T20:22:22.249Z,13.52
2022-11-14T20:25:15.540Z,12.90
2022-11-14T20:28:02.042Z,11.57
2022-11-14T20:30:48.866Z,11.57
2022-11-14T20:33:38.457Z,11.82
2022-11-14T20:36:29.448Z,11.88
2022-11-14T20:39:25.959Z,11.77
2022-11-14T20:42:13.931Z,10.73
2022-11-14T20:45:00.582Z,11.75
2022-11-14T20:47:47.158Z,10.52
2022-11-14T20:50:33.917Z,11.65
2022-11-14T20:53:20.734Z,12.43
2022-11-14T20:56:07.622Z,11.55
2022-11-14T20:58:56.042Z,13.80
2022-11-14T21:01:46.291Z,12.90
2022-11-14T21:04:34.892Z,11.80
2022-11-14T21:07:21.282Z,11.68
2022-11-14T21:10:25.746Z,11.75
2022-11-14T21:13:30.503Z,11.90
2022-11-14T21:16:20.029Z,13.63
2022-11-14T21:19:07.645Z,12.32
2022-11-14T21:21:54.661Z,11.65
2022-11-14T21:24:41.020Z,12.38
2022-11-14T21:27:27.522Z,11.82
2022-11-14T21:30:14.890Z,10.70
2022-11-14T21:33:03.531Z,10.20
2022-11-14T21:35:50.387Z,9.63
2022-11-14T21:38:36.995Z,9.40
2022-11-14T21:41:26.170Z,9.50
2022-11-14T21:44:16.281Z,9.93
2022-11-14T21:47:02.990Z,9.48
2022-11-14T21:50:00.985Z,11.20
2022-11-14T21:52:48.010Z,10.02
2022-11-14T21:55:34.801Z,9.30
2022-11-14T21:58:21.433Z,10.25
2022-11-14T22:01:10.067Z,9.90
2022-11-14T22:04:13.774Z,9.27
2022-11-14T22:07:03.661Z,10.65
2022-11-14T22:09:50.505Z,9.38
2022-11-14T22:12:37.256Z,11.25
2022-11-14T22:15:24.011Z,9.45
2022-11-14T22:18:10.611Z,8.60
2022-11-14T22:20:59.508Z,9.68
2022-11-14T22:23:47.709Z,9.00
2022-11-14T22:26:39.649Z,9.25
2022-11-14T22:29:26.241Z,10.05
2022-11-14T22:32:12.759Z,9.70
2022-11-14T22:34:59.419Z,10.00
2022-11-14T22:37:45.974Z,9.18
2022-11-14T22:40:33.941Z,8.05
2022-11-14T22:43:22.316Z,8.73
2022-11-14T22:46:11.633Z,9.02
2022-11-14T22:48:58.605Z,8.77
2022-11-14T22:51:45.086Z,8.95
2022-11-14T22:54:31.755Z,9.13
2022-11-14T22:57:19.538Z,8.65
2022-11-14T23:00:08.800Z,11.25
2022-11-14T23:02:55.288Z,8.77
2022-11-14T23:05:41.941Z,9.73
2022-11-14T23:08:28.592Z,9.18
2022-11-14T23:11:17.637Z,9.52
2022-11-14T23:14:05.377Z,9.52
2022-11-14T23:16:52.161Z,9.23
2022-11-14T23:19:38.509Z,9.35
2022-11-14T23:22:24.823Z,8.98
2022-11-14T23:25:11.562Z,10.10
2022-11-14T23:27:59.179Z,8.63
2022-11-14T23:30:47.064Z,8.68
2022-11-14T23:33:34.317Z,8.45
2022-11-14T23:36:21.323Z,8.50
2022-11-14T23:39:07.963Z,9.02
2022-11-14T23:41:54.613Z,9.73
2022-11-14T23:44:41.130Z,8.70
2022-11-14T23:47:28.726Z,9.23
2022-11-14T23:50:16.009Z,8.93
2022-11-14T23:53:02.825Z,8.32
2022-11-14T23:55:53.395Z,7.97
2022-11-14T23:58:39.790Z,8.05
